KBVY/BVY METAR and TAF weather

Enter ICAO airport designator
Station Type Date Time Source
KBVY METAR 2021/03/08 02:53 UTC NOAA

KBVY 080253Z AUTO 29005KT 10SM CLR M02/M12 A3031 RMK AO2 SLP261 T10171122 51006


Station Type Date Time Source
KBVY Decoded METAR 2021/03/08 02:53 UTC NOAA

BEVERLY MUNICIPAL AIRPORT, MA, United States (KBVY) 42-35N 070-55W 28M
Mar 07, 2021 - 09:53 PM EST / 2021.03.08 0253 UTC
Wind: from the WNW (290 degrees) at 6 MPH (5 KT):0
Visibility: 10 mile(s):0
Sky conditions: clear
Temperature: 28.9 F (-1.7 C)
Windchill: 23 F (-5 C):1
Dew Point: 10.0 F (-12.2 C)
Relative Humidity: 44%
Pressure (altimeter): 30.31 in. Hg (1026 hPa)
Pressure tendency: 0.02 inches (0.6 hPa) higher than three hours ago
ob: KBVY 080253Z AUTO 29005KT 10SM CLR M02/M12 A3031 RMK AO2 SLP261 T10171122 51006
cycle: 3

Station Type Date Time Source
KBVY TAF UTC NOAA

Error!

Example: see airport list